createdAt,value
2022-12-06T00:01:09.109Z,88.21
2022-12-06T00:04:13.885Z,88.34
2022-12-06T00:07:16.674Z,88.23
2022-12-06T00:10:20.865Z,88.40
2022-12-06T00:13:23.701Z,88.48
2022-12-06T00:16:27.648Z,88.50
2022-12-06T00:19:32.598Z,88.77
2022-12-06T00:22:35.429Z,88.78
2022-12-06T00:25:42.067Z,88.36
2022-12-06T00:28:45.584Z,88.62
2022-12-06T00:31:51.338Z,88.67
2022-12-06T00:34:56.136Z,88.45
2022-12-06T00:37:58.933Z,88.40
2022-12-06T00:41:04.908Z,88.20
2022-12-06T00:44:10.828Z,88.57
2022-12-06T00:47:13.688Z,88.36
2022-12-06T00:50:16.668Z,88.63
2022-12-06T00:53:28.717Z,88.52
2022-12-06T00:56:33.636Z,88.44
2022-12-06T00:59:38.542Z,88.85
2022-12-06T01:02:42.203Z,88.61
2022-12-06T01:05:46.985Z,88.95
2022-12-06T01:08:51.177Z,89.06
2022-12-06T01:11:58.231Z,88.67
2022-12-06T01:15:00.991Z,89.07
2022-12-06T01:18:06.071Z,89.06
2022-12-06T01:21:09.915Z,88.81
2022-12-06T01:24:12.634Z,88.96
2022-12-06T01:27:16.638Z,88.86
2022-12-06T01:30:19.385Z,88.70
2022-12-06T01:33:22.172Z,88.93
2022-12-06T01:36:26.465Z,89.04
2022-12-06T01:39:29.238Z,88.95
2022-12-06T01:42:33.355Z,88.78
2022-12-06T01:45:36.201Z,88.66
2022-12-06T01:48:40.188Z,88.58
2022-12-06T01:51:48.211Z,88.48
2022-12-06T01:54:58.371Z,88.53
2022-12-06T01:58:08.419Z,88.93
2022-12-06T02:01:11.845Z,88.70
2022-12-06T02:04:16.011Z,88.95
2022-12-06T02:07:18.829Z,88.87
2022-12-06T02:10:21.786Z,89.00
2022-12-06T02:13:26.918Z,88.93
2022-12-06T02:16:53.443Z,89.03
2022-12-06T02:20:14.669Z,88.85
2022-12-06T02:24:06.633Z,89.06
2022-12-06T02:27:35.182Z,88.96
2022-12-06T02:30:45.105Z,88.88
2022-12-06T02:33:51.716Z,88.81
2022-12-06T02:37:01.025Z,89.07
2022-12-06T02:40:07.972Z,88.73
2022-12-06T02:43:14.752Z,88.72
2022-12-06T02:46:24.463Z,89.08
2022-12-06T02:49:33.281Z,88.92
2022-12-06T02:52:39.985Z,89.05
2022-12-06T02:55:43.913Z,88.84
2022-12-06T02:58:48.061Z,89.13
2022-12-06T03:01:56.917Z,89.17
2022-12-06T03:05:11.152Z,89.01
2022-12-06T03:08:24.298Z,89.22
2022-12-06T03:11:30.668Z,89.13
2022-12-06T03:14:39.663Z,88.91
2022-12-06T03:17:48.981Z,89.18
2022-12-06T03:20:55.925Z,89.04
2022-12-06T03:23:59.689Z,89.24
2022-12-06T03:27:07.531Z,89.28
2022-12-06T03:30:13.442Z,89.18
2022-12-06T03:33:20.370Z,89.48
2022-12-06T03:36:25.790Z,89.41
2022-12-06T03:39:36.344Z,89.53
2022-12-06T03:42:39.723Z,89.47
2022-12-06T03:45:47.990Z,89.25
2022-12-06T03:48:57.023Z,89.37
2022-12-06T03:52:03.373Z,89.20
2022-12-06T03:55:09.429Z,89.22
2022-12-06T03:58:13.018Z,89.49
2022-12-06T04:01:15.827Z,89.60
2022-12-06T04:04:20.338Z,89.38
2022-12-06T04:07:23.824Z,89.35
2022-12-06T04:10:29.676Z,89.52
2022-12-06T04:13:33.199Z,89.45
2022-12-06T04:16:56.450Z,89.74
2022-12-06T04:20:00.936Z,89.49
2022-12-06T04:23:05.660Z,89.05
2022-12-06T04:26:10.425Z,89.29
2022-12-06T04:29:30.642Z,89.52
2022-12-06T04:32:50.757Z,89.54
2022-12-06T04:36:14.748Z,89.60
2022-12-06T04:39:20.597Z,89.39
2022-12-06T04:42:47.387Z,89.34
2022-12-06T04:45:52.125Z,89.70
2022-12-06T04:48:55.066Z,89.86
2022-12-06T04:51:59.133Z,89.51
2022-12-06T04:55:02.081Z,89.68
2022-12-06T04:58:05.329Z,89.75
2022-12-06T05:01:08.160Z,89.38
2022-12-06T05:04:11.117Z,89.65
2022-12-06T05:07:15.385Z,89.11
2022-12-06T05:10:18.275Z,88.91
2022-12-06T05:13:21.566Z,88.95
2022-12-06T05:16:24.397Z,89.20
2022-12-06T05:19:27.956Z,88.88
2022-12-06T05:22:34.759Z,88.56
2022-12-06T05:25:37.544Z,88.54
2022-12-06T05:28:40.331Z,88.20
2022-12-06T05:31:51.055Z,88.46
2022-12-06T05:34:53.768Z,86.91
2022-12-06T05:37:58.011Z,87.55
2022-12-06T05:41:00.764Z,86.96
2022-12-06T05:44:03.588Z,87.05
2022-12-06T05:47:06.464Z,86.39
2022-12-06T05:50:09.985Z,87.11
2022-12-06T05:53:17.435Z,87.54
2022-12-06T05:56:22.664Z,88.30
2022-12-06T05:59:25.459Z,87.10
2022-12-06T06:02:28.316Z,86.73
2022-12-06T06:05:31.817Z,87.19
2022-12-06T06:08:35.928Z,86.77
2022-12-06T06:11:38.668Z,87.60
2022-12-06T06:14:41.417Z,87.63
2022-12-06T06:17:51.763Z,87.57
2022-12-06T06:20:55.965Z,87.69
2022-12-06T06:24:00.382Z,88.13
2022-12-06T06:27:04.136Z,88.40
2022-12-06T06:30:09.255Z,87.46
2022-12-06T06:33:12.030Z,87.67
2022-12-06T06:36:15.444Z,87.92
2022-12-06T06:39:20.293Z,87.72
2022-12-06T06:42:29.273Z,87.97
2022-12-06T06:45:32.047Z,88.21
2022-12-06T06:48:36.615Z,87.27
2022-12-06T06:51:39.325Z,87.70
2022-12-06T06:54:43.438Z,88.25
2022-12-06T06:57:47.630Z,88.46
2022-12-06T07:00:55.073Z,88.21
2022-12-06T07:03:57.996Z,88.43
2022-12-06T07:07:00.730Z,88.34
2022-12-06T07:10:05.511Z,88.31
2022-12-06T07:13:08.229Z,88.20
2022-12-06T07:16:15.831Z,88.32
2022-12-06T07:19:18.834Z,88.55
2022-12-06T07:22:21.628Z,88.36
2022-12-06T07:25:26.159Z,88.71
2022-12-06T07:28:28.906Z,88.43
2022-12-06T07:31:32.321Z,88.90
2022-12-06T07:34:38.881Z,88.69
2022-12-06T07:37:45.220Z,88.22
2022-12-06T07:41:04.566Z,88.26
2022-12-06T07:44:27.249Z,88.18
2022-12-06T07:47:33.744Z,88.75
2022-12-06T07:50:45.611Z,87.95
2022-12-06T07:53:48.435Z,87.54
2022-12-06T07:56:59.973Z,87.05
2022-12-06T08:00:05.230Z,85.54
2022-12-06T08:03:08.899Z,86.21
2022-12-06T08:06:14.504Z,87.15
2022-12-06T08:09:17.267Z,87.72
2022-12-06T08:12:22.848Z,86.37
2022-12-06T08:15:27.912Z,86.50
2022-12-06T08:18:31.303Z,86.69
2022-12-06T08:21:40.240Z,87.25
2022-12-06T08:24:42.993Z,86.37
2022-12-06T08:27:47.165Z,86.01
2022-12-06T08:30:50.169Z,87.30
2022-12-06T08:33:53.449Z,87.84
2022-12-06T08:37:00.326Z,87.90
2022-12-06T08:40:07.399Z,87.85
2022-12-06T08:43:11.738Z,87.71
2022-12-06T08:46:14.561Z,87.39
2022-12-06T08:49:18.453Z,87.81
2022-12-06T08:52:21.480Z,87.67
2022-12-06T08:55:24.376Z,87.37
2022-12-06T08:58:28.479Z,87.18
2022-12-06T09:01:37.696Z,87.57
2022-12-06T09:04:41.050Z,87.40
2022-12-06T09:07:44.122Z,87.11
2022-12-06T09:10:46.986Z,87.17
2022-12-06T09:13:51.191Z,86.81
2022-12-06T09:16:54.111Z,86.25
2022-12-06T09:20:02.129Z,85.24
2022-12-06T09:23:08.281Z,84.10
2022-12-06T09:26:11.187Z,80.36
2022-12-06T09:29:16.210Z,82.72
2022-12-06T09:32:18.957Z,83.90
2022-12-06T09:35:25.256Z,84.13
2022-12-06T09:38:30.333Z,83.78
2022-12-06T09:42:00.114Z,80.34
2022-12-06T09:45:39.720Z,81.82
2022-12-06T09:49:03.313Z,82.90
2022-12-06T09:52:34.964Z,83.03
2022-12-06T09:55:55.616Z,81.58
2022-12-06T09:59:15.844Z,82.01
2022-12-06T10:02:38.140Z,82.06
2022-12-06T10:05:58.124Z,81.65
2022-12-06T10:09:26.556Z,82.04
2022-12-06T10:12:45.978Z,79.90
2022-12-06T10:15:56.171Z,80.10
2022-12-06T10:19:23.373Z,79.86
2022-12-06T10:22:39.287Z,81.05
2022-12-06T10:25:43.444Z,80.52
2022-12-06T10:28:58.756Z,80.87
2022-12-06T10:32:12.251Z,80.91
2022-12-06T10:35:22.647Z,80.19
2022-12-06T10:38:34.577Z,81.12
2022-12-06T10:41:41.427Z,80.17
2022-12-06T10:44:49.089Z,80.07
2022-12-06T10:47:54.025Z,80.79
2022-12-06T10:51:05.272Z,80.01
2022-12-06T10:54:22.649Z,80.66
2022-12-06T10:57:31.938Z,81.13
2022-12-06T11:00:39.210Z,79.40
2022-12-06T11:03:56.676Z,80.21
2022-12-06T11:07:09.354Z,80.58
2022-12-06T11:10:18.994Z,80.83
2022-12-06T11:13:27.331Z,79.37
2022-12-06T11:16:37.467Z,78.99
2022-12-06T11:19:45.593Z,79.61
2022-12-06T11:22:55.939Z,81.06
2022-12-06T11:26:18.112Z,79.56
2022-12-06T11:29:24.804Z,80.61
2022-12-06T11:32:27.624Z,80.15
2022-12-06T11:35:30.447Z,80.13
2022-12-06T11:38:35.664Z,80.62
2022-12-06T11:41:38.725Z,80.25
2022-12-06T11:44:49.748Z,80.52
2022-12-06T11:47:54.883Z,79.58
2022-12-06T11:50:57.936Z,80.01
2022-12-06T11:54:24.195Z,80.31
2022-12-06T11:57:29.243Z,80.63
2022-12-06T12:00:32.013Z,81.17
2022-12-06T12:03:36.685Z,81.42
2022-12-06T12:06:42.674Z,81.54
2022-12-06T12:09:57.526Z,81.17
2022-12-06T12:13:34.991Z,79.71
2022-12-06T12:16:44.105Z,79.76
2022-12-06T12:19:51.807Z,80.53
2022-12-06T12:23:00.488Z,80.63
2022-12-06T12:26:13.207Z,80.92
2022-12-06T12:29:19.038Z,80.75
2022-12-06T12:32:22.013Z,80.56
2022-12-06T12:35:34.392Z,80.38
2022-12-06T12:38:41.852Z,79.97
2022-12-06T12:41:46.381Z,80.13
2022-12-06T12:44:49.340Z,80.36
2022-12-06T12:48:00.108Z,80.01
2022-12-06T12:51:06.655Z,79.95
2022-12-06T12:54:22.047Z,80.07
2022-12-06T12:57:26.193Z,79.97
2022-12-06T13:00:33.294Z,79.66
2022-12-06T13:03:51.043Z,79.33
2022-12-06T13:06:59.250Z,79.63
2022-12-06T13:10:06.609Z,79.55
2022-12-06T13:13:17.564Z,78.62
2022-12-06T13:16:24.913Z,78.72
2022-12-06T13:19:36.493Z,78.36
2022-12-06T13:22:45.217Z,78.35
2022-12-06T13:25:52.990Z,77.73
2022-12-06T13:29:04.289Z,78.37
2022-12-06T13:32:14.355Z,77.83
2022-12-06T13:35:26.652Z,77.90
2022-12-06T13:38:33.225Z,78.08
2022-12-06T13:42:12.114Z,78.27
2022-12-06T13:45:45.505Z,78.42
2022-12-06T13:48:52.747Z,77.75
2022-12-06T13:51:55.557Z,76.35
2022-12-06T13:54:58.258Z,77.13
2022-12-06T13:58:34.390Z,77.64
2022-12-06T14:01:42.734Z,77.76
2022-12-06T14:04:45.558Z,77.14
2022-12-06T14:07:48.357Z,76.93
2022-12-06T14:10:51.262Z,77.27
2022-12-06T14:14:03.439Z,77.54
2022-12-06T14:17:26.756Z,77.54
2022-12-06T14:20:56.412Z,77.85
2022-12-06T14:23:59.402Z,77.91
2022-12-06T14:27:13.524Z,77.33
2022-12-06T14:30:25.262Z,77.61
2022-12-06T14:33:39.701Z,77.76
2022-12-06T14:36:42.785Z,78.37
2022-12-06T14:39:53.181Z,78.01
2022-12-06T14:43:02.136Z,78.17
2022-12-06T14:46:07.453Z,77.93
2022-12-06T14:49:32.769Z,78.32
2022-12-06T14:52:56.643Z,78.41
2022-12-06T14:56:02.123Z,78.13
2022-12-06T14:59:12.061Z,77.96
2022-12-06T15:02:23.666Z,77.53
2022-12-06T15:05:36.821Z,77.51
2022-12-06T15:08:42.336Z,77.23
2022-12-06T15:12:02.936Z,77.50
2022-12-06T15:15:06.871Z,78.01
2022-12-06T15:18:24.129Z,77.77
2022-12-06T15:21:28.270Z,78.44
2022-12-06T15:24:32.274Z,78.75
2022-12-06T15:27:37.570Z,79.08
2022-12-06T15:30:43.377Z,79.60
2022-12-06T15:33:47.136Z,78.95
2022-12-06T15:37:08.968Z,78.72
2022-12-06T15:40:16.018Z,78.72
2022-12-06T15:43:28.864Z,78.63
2022-12-06T15:46:32.736Z,79.07
2022-12-06T15:49:36.052Z,79.31
2022-12-06T15:52:46.348Z,79.11
2022-12-06T15:55:50.487Z,79.63
2022-12-06T15:58:53.342Z,80.09
2022-12-06T16:01:56.092Z,79.78
2022-12-06T16:04:59.386Z,80.19
2022-12-06T16:08:06.685Z,80.27
2022-12-06T16:11:12.042Z,80.43
2022-12-06T16:14:22.910Z,79.83
2022-12-06T16:17:25.722Z,79.56
2022-12-06T16:20:35.151Z,79.85
2022-12-06T16:24:13.412Z,80.34
2022-12-06T16:27:16.450Z,80.57
2022-12-06T16:30:31.932Z,80.64
2022-12-06T16:33:34.782Z,80.50
2022-12-06T16:36:54.474Z,80.57
2022-12-06T16:39:58.521Z,80.64
2022-12-06T16:43:04.322Z,80.65
2022-12-06T16:46:20.737Z,81.10
2022-12-06T16:52:51.782Z,81.23
2022-12-06T16:55:55.969Z,80.82
2022-12-06T16:58:59.302Z,81.09
2022-12-06T17:02:02.267Z,81.28
2022-12-06T17:05:06.901Z,81.25
2022-12-06T17:08:09.984Z,81.23
2022-12-06T17:11:35.822Z,81.29
2022-12-06T17:14:39.036Z,80.92
2022-12-06T17:17:42.160Z,81.11
2022-12-06T17:20:44.828Z,81.00
2022-12-06T17:23:47.727Z,81.21
2022-12-06T17:26:53.960Z,81.63
2022-12-06T17:29:56.664Z,82.03
2022-12-06T17:32:59.396Z,82.13
2022-12-06T17:36:07.332Z,82.01
2022-12-06T17:39:11.421Z,82.37
2022-12-06T17:42:29.676Z,82.14
2022-12-06T17:45:32.420Z,82.02
2022-12-06T17:48:39.008Z,81.95
2022-12-06T17:51:44.344Z,81.82
2022-12-06T17:54:47.073Z,82.07
2022-12-06T17:57:51.221Z,82.33
2022-12-06T18:00:59.706Z,82.77
2022-12-06T18:04:04.203Z,82.77
2022-12-06T18:07:07.225Z,82.95
2022-12-06T18:10:11.092Z,82.91
2022-12-06T18:13:15.179Z,82.89
2022-12-06T18:16:19.679Z,82.79
2022-12-06T18:19:23.507Z,83.04
2022-12-06T18:22:26.272Z,82.72
2022-12-06T18:25:29.111Z,82.77
2022-12-06T18:28:33.345Z,82.84
2022-12-06T18:31:37.102Z,83.20
2022-12-06T18:34:39.864Z,83.12
2022-12-06T18:37:42.576Z,83.21
2022-12-06T18:40:45.353Z,82.91
2022-12-06T18:43:49.964Z,83.27
2022-12-06T18:46:53.492Z,83.10
2022-12-06T18:49:56.547Z,82.90
2022-12-06T18:53:00.944Z,83.12
2022-12-06T18:56:04.882Z,83.24
2022-12-06T18:59:10.207Z,83.22
2022-12-06T19:02:13.662Z,83.08
2022-12-06T19:05:32.956Z,83.28
2022-12-06T19:08:42.528Z,82.80
2022-12-06T19:11:51.149Z,83.18
2022-12-06T19:14:55.213Z,83.24
2022-12-06T19:17:58.154Z,83.36
2022-12-06T19:21:02.023Z,82.82
2022-12-06T19:24:05.437Z,83.36
2022-12-06T19:27:08.266Z,82.92
2022-12-06T19:30:14.909Z,83.21
2022-12-06T19:33:17.837Z,83.38
2022-12-06T19:36:22.776Z,83.43
2022-12-06T19:39:30.958Z,83.27
2022-12-06T19:42:52.873Z,82.45
2022-12-06T19:45:56.967Z,83.16
2022-12-06T19:49:02.176Z,83.08
2022-12-06T19:52:05.188Z,83.50
2022-12-06T19:55:08.445Z,83.41
2022-12-06T19:58:11.720Z,83.41
2022-12-06T20:01:21.378Z,83.29
2022-12-06T20:04:33.667Z,83.31
2022-12-06T20:07:37.012Z,83.21
2022-12-06T20:10:40.220Z,83.49
2022-12-06T20:13:42.950Z,83.19
2022-12-06T20:16:47.055Z,83.31
2022-12-06T20:19:49.986Z,83.63
2022-12-06T20:22:52.715Z,83.74
2022-12-06T20:25:58.060Z,83.78
2022-12-06T20:29:02.201Z,83.55
2022-12-06T20:32:06.804Z,83.64
2022-12-06T20:35:10.070Z,83.64
2022-12-06T20:38:12.871Z,83.62
2022-12-06T20:41:19.017Z,83.56
2022-12-06T20:44:22.279Z,83.76
2022-12-06T20:47:26.373Z,83.96
2022-12-06T20:50:29.093Z,83.72
2022-12-06T20:53:32.868Z,84.16
2022-12-06T20:56:39.056Z,84.16
2022-12-06T20:59:41.865Z,83.88
2022-12-06T21:02:46.020Z,83.81
2022-12-06T21:05:55.015Z,83.71
2022-12-06T21:08:58.044Z,84.01
2022-12-06T21:12:05.146Z,84.19
2022-12-06T21:15:09.040Z,83.96
2022-12-06T21:18:17.378Z,84.15
2022-12-06T21:21:23.182Z,84.28
2022-12-06T21:24:26.014Z,84.13
2022-12-06T21:27:29.625Z,84.17
2022-12-06T21:30:32.730Z,84.24
2022-12-06T21:33:36.936Z,84.29
2022-12-06T21:36:39.650Z,84.10
2022-12-06T21:39:46.278Z,84.09
2022-12-06T21:42:49.036Z,83.82
2022-12-06T21:45:51.747Z,84.18
2022-12-06T21:49:03.505Z,84.20
2022-12-06T21:52:09.353Z,84.26
2022-12-06T21:55:12.373Z,84.18
2022-12-06T21:58:18.158Z,84.32
2022-12-06T22:01:24.159Z,84.37
2022-12-06T22:04:28.565Z,84.21
2022-12-06T22:07:33.754Z,84.09
2022-12-06T22:10:41.341Z,84.31
2022-12-06T22:13:44.348Z,84.35
2022-12-06T22:16:47.104Z,84.20
2022-12-06T22:19:51.832Z,84.14
2022-12-06T22:22:54.505Z,84.19
2022-12-06T22:25:57.254Z,84.39
2022-12-06T22:29:00.945Z,84.38
2022-12-06T22:32:04.406Z,84.62
2022-12-06T22:35:09.499Z,84.84
2022-12-06T22:38:12.445Z,84.65
2022-12-06T22:41:15.143Z,85.08
2022-12-06T22:44:18.109Z,85.04
2022-12-06T22:47:20.866Z,85.27
2022-12-06T22:50:24.966Z,85.59
2022-12-06T22:53:27.717Z,85.62
2022-12-06T22:56:33.169Z,86.09
2022-12-06T22:59:38.273Z,86.78
2022-12-06T23:02:41.008Z,86.99
2022-12-06T23:05:45.135Z,87.39
2022-12-06T23:08:48.054Z,87.38
2022-12-06T23:11:50.825Z,87.80
2022-12-06T23:14:53.613Z,88.17
2022-12-06T23:17:56.336Z,88.29
2022-12-06T23:21:07.875Z,88.79
2022-12-06T23:24:12.488Z,88.57
2022-12-06T23:27:17.008Z,88.82
2022-12-06T23:30:19.848Z,88.80
2022-12-06T23:33:22.940Z,88.68
2022-12-06T23:36:29.034Z,89.03
2022-12-06T23:39:31.890Z,89.13
2022-12-06T23:42:34.593Z,89.30
2022-12-06T23:45:37.385Z,89.36
2022-12-06T23:48:41.594Z,89.44
2022-12-06T23:51:46.769Z,89.17
2022-12-06T23:54:49.477Z,89.13
2022-12-06T23:57:52.381Z,89.18
